Time;durP1;ratioP1;P1;durP2;ratioP2;P2;SDS_P1;SDS_P2;PMS_P1;PMS_P2;Temp;Humidity;BMP_temperature;BMP_pressure;BME280_temperature;BME280_humidity;BME280_pressure;Samples;Min_cycle;Max_cycle;Signal;HPM_P1;HPM_P2
2021/06/13 00:01:35;;;;;;;19.50;9.03;;;12.70;99.90;;;;;;5262693;27;20593;-58
2021/06/13 00:04:06;;;;;;;15.93;8.53;;;12.70;99.90;;;;;;5263744;27;20169;-59
2021/06/13 00:06:32;;;;;;;21.80;9.23;;;12.70;99.90;;;;;;5263547;27;20119;-58
2021/06/13 00:09:05;;;;;;;20.23;9.67;;;12.70;99.90;;;;;;5262128;27;20107;-60
2021/06/13 00:11:34;;;;;;;20.50;8.77;;;12.70;99.90;;;;;;5262361;27;20168;-60
2021/06/13 00:14:09;;;;;;;14.13;8.43;;;12.70;99.90;;;;;;5263920;27;20108;-59
2021/06/13 00:16:40;;;;;;;21.67;9.63;;;12.70;99.90;;;;;;5262204;27;20106;-59
2021/06/13 00:19:07;;;;;;;23.70;8.97;;;12.60;99.90;;;;;;5262013;27;20420;-58
2021/06/13 00:21:38;;;;;;;20.63;9.27;;;12.60;99.90;;;;;;5261928;27;20147;-59
2021/06/13 00:24:06;;;;;;;21.97;9.77;;;12.60;99.90;;;;;;5257669;27;98962;-61
2021/06/13 00:26:37;;;;;;;19.83;8.27;;;12.60;99.90;;;;;;5262989;27;20452;-60
2021/06/13 00:29:04;;;;;;;23.33;9.60;;;12.60;99.90;;;;;;5263561;27;20106;-59
2021/06/13 00:31:30;;;;;;;18.10;9.13;;;12.60;99.90;;;;;;5262695;27;20428;-60
2021/06/13 00:33:57;;;;;;;21.53;9.83;;;12.50;99.90;;;;;;5261960;27;20108;-60
2021/06/13 00:36:24;;;;;;;23.73;9.37;;;12.60;99.90;;;;;;5261985;27;20107;-59
2021/06/13 00:38:51;;;;;;;21.67;8.83;;;12.50;99.90;;;;;;5261378;27;20477;-59
2021/06/13 00:41:18;;;;;;;20.53;9.63;;;12.50;99.90;;;;;;5261456;27;20139;-61
2021/06/13 00:43:45;;;;;;;22.03;9.87;;;12.50;99.90;;;;;;5263743;27;20423;-59
2021/06/13 00:46:12;;;;;;;20.37;8.93;;;12.50;99.90;;;;;;5261086;27;20107;-60
2021/06/13 00:48:38;;;;;;;22.53;8.63;;;12.40;99.90;;;;;;5264309;27;20423;-60
2021/06/13 00:51:05;;;;;;;19.80;9.00;;;12.40;99.90;;;;;;5261563;27;20107;-59
2021/06/13 00:53:34;;;;;;;19.90;9.67;;;12.40;99.90;;;;;;5263818;27;20107;-58
2021/06/13 00:56:01;;;;;;;17.53;9.20;;;12.40;99.90;;;;;;5261209;27;20123;-58
2021/06/13 00:58:27;;;;;;;17.30;9.93;;;12.40;99.90;;;;;;5262694;27;20188;-60
2021/06/13 01:00:54;;;;;;;18.87;9.83;;;12.30;99.90;;;;;;5261810;27;20104;-60
2021/06/13 01:03:24;;;;;;;22.77;9.67;;;12.30;99.90;;;;;;5260892;27;20102;-59
2021/06/13 01:05:50;;;;;;;20.40;9.73;;;12.30;99.90;;;;;;5261363;27;20544;-61
2021/06/13 01:08:30;;;;;;;19.40;9.03;;;12.20;99.90;;;;;;5261652;27;20108;-60
2021/06/13 01:11:17;;;;;;;21.43;9.43;;;12.30;99.90;;;;;;5261634;27;20121;-59
2021/06/13 01:13:53;;;;;;;17.70;9.47;;;12.20;99.90;;;;;;5261871;27;20161;-58
2021/06/13 01:16:27;;;;;;;20.30;9.27;;;12.30;99.90;;;;;;5261570;27;20108;-58
2021/06/13 01:19:00;;;;;;;21.20;9.50;;;12.20;99.90;;;;;;5263819;27;20130;-59
2021/06/13 01:21:33;;;;;;;18.33;8.87;;;12.20;99.90;;;;;;5261732;27;20142;-59
2021/06/13 01:24:17;;;;;;;16.37;9.40;;;12.20;99.90;;;;;;5261490;27;20139;-59
2021/06/13 01:27:12;;;;;;;18.70;9.30;;;12.20;99.90;;;;;;5261392;27;20157;-62
2021/06/13 01:29:42;;;;;;;20.73;9.73;;;12.20;99.90;;;;;;5261027;27;20106;-57
2021/06/13 01:32:13;;;;;;;19.13;9.37;;;12.20;99.90;;;;;;5261162;27;20542;-59
2021/06/13 01:34:46;;;;;;;19.30;9.70;;;12.10;99.90;;;;;;5262853;27;20107;-58
2021/06/13 01:37:16;;;;;;;22.17;10.13;;;12.10;99.90;;;;;;5261477;27;20115;-59
2021/06/13 01:39:45;;;;;;;20.00;9.80;;;12.10;99.90;;;;;;5262632;27;20122;-58
2021/06/13 01:42:13;;;;;;;20.67;9.47;;;12.00;99.90;;;;;;5261561;27;20107;-60
2021/06/13 01:44:50;;;;;;;22.30;9.53;;;12.00;99.90;;;;;;5261411;27;20148;-58
2021/06/13 01:47:19;;;;;;;21.03;9.30;;;12.00;99.90;;;;;;5261396;27;20108;-59
2021/06/13 01:49:45;;;;;;;21.27;10.23;;;12.00;99.90;;;;;;5261410;27;20107;-59
2021/06/13 01:52:13;;;;;;;21.53;8.90;;;12.00;99.90;;;;;;5261086;27;20122;-59
2021/06/13 01:54:43;;;;;;;14.73;9.10;;;12.00;99.90;;;;;;5260999;27;20111;-60
2021/06/13 01:57:10;;;;;;;23.37;9.53;;;11.90;99.90;;;;;;5261404;27;20524;-58
2021/06/13 01:59:41;;;;;;;24.37;10.53;;;11.90;99.90;;;;;;5261108;27;20435;-59
2021/06/13 02:02:09;;;;;;;17.77;9.60;;;11.90;99.90;;;;;;5263528;27;20159;-58
2021/06/13 02:04:39;;;;;;;25.13;9.90;;;11.90;99.90;;;;;;5263622;27;20152;-59
2021/06/13 02:07:07;;;;;;;23.87;10.13;;;11.90;99.90;;;;;;5260639;27;20115;-58
2021/06/13 02:09:34;;;;;;;21.57;10.40;;;11.80;99.90;;;;;;5263554;27;20194;-59
2021/06/13 02:12:05;;;;;;;20.80;11.07;;;11.80;99.90;;;;;;5261357;27;20427;-58
2021/06/13 02:14:33;;;;;;;19.73;9.07;;;11.80;99.90;;;;;;5261472;27;20111;-58
2021/06/13 02:17:02;;;;;;;20.13;9.30;;;11.80;99.90;;;;;;5261696;27;20118;-58
2021/06/13 02:19:30;;;;;;;19.97;10.03;;;11.80;99.90;;;;;;5263665;27;20106;-57
2021/06/13 02:21:58;;;;;;;23.77;10.63;;;11.80;99.90;;;;;;5261330;27;20107;-57
2021/06/13 02:24:30;;;;;;;19.20;9.47;;;11.80;99.90;;;;;;5260742;27;20153;-59
2021/06/13 02:26:57;;;;;;;19.00;9.67;;;11.70;99.90;;;;;;5260975;27;20119;-58
2021/06/13 02:29:26;;;;;;;24.30;10.40;;;11.70;99.90;;;;;;5261742;27;20107;-57
2021/06/13 02:31:56;;;;;;;18.67;9.43;;;11.70;99.90;;;;;;5262249;27;20523;-60
2021/06/13 02:34:28;;;;;;;16.07;8.53;;;11.70;99.90;;;;;;5260481;27;20266;-59
2021/06/13 02:36:59;;;;;;;22.57;9.00;;;11.60;99.90;;;;;;5261250;27;20107;-59
2021/06/13 02:39:32;;;;;;;18.10;9.07;;;11.60;99.90;;;;;;5262299;27;20508;-57
2021/06/13 02:42:04;;;;;;;18.00;9.30;;;11.50;99.90;;;;;;5261188;27;20139;-58
2021/06/13 02:44:31;;;;;;;19.53;10.50;;;11.60;99.90;;;;;;5262724;27;20137;-59
2021/06/13 02:46:57;;;;;;;20.57;9.57;;;11.60;99.90;;;;;;5261294;27;20108;-59
2021/06/13 02:49:25;;;;;;;17.20;9.30;;;11.60;99.90;;;;;;5261395;27;20504;-59
2021/06/13 02:51:57;;;;;;;16.27;9.40;;;11.60;99.90;;;;;;5261747;27;20123;-59
2021/06/13 02:54:25;;;;;;;22.77;10.33;;;11.60;99.90;;;;;;5261567;27;20111;-61
2021/06/13 02:56:55;;;;;;;20.30;9.77;;;11.50;99.90;;;;;;5261977;27;20127;-58
2021/06/13 02:59:29;;;;;;;18.17;9.37;;;11.50;99.90;;;;;;5261451;27;20156;-58
2021/06/13 03:01:56;;;;;;;21.50;9.93;;;11.50;99.90;;;;;;5261629;27;20111;-58
2021/06/13 03:04:25;;;;;;;22.93;10.93;;;11.50;99.90;;;;;;5260974;27;20123;-59
2021/06/13 03:06:55;;;;;;;15.57;8.10;;;11.50;99.90;;;;;;5260616;27;20108;-58
2021/06/13 03:09:25;;;;;;;13.33;8.23;;;11.40;99.90;;;;;;5263326;27;20102;-57
2021/06/13 03:11:51;;;;;;;19.87;9.80;;;11.40;99.90;;;;;;5260652;27;20106;-58
2021/06/13 03:14:18;;;;;;;21.30;9.57;;;11.40;99.90;;;;;;5260938;27;20185;-58
2021/06/13 03:16:46;;;;;;;19.20;9.67;;;11.40;99.90;;;;;;5261700;27;20167;-58
2021/06/13 03:19:15;;;;;;;21.90;9.67;;;11.40;99.90;;;;;;5260743;27;20107;-58
2021/06/13 03:21:49;;;;;;;17.17;8.77;;;11.40;99.90;;;;;;5260826;27;20169;-57
2021/06/13 03:24:16;;;;;;;16.83;9.20;;;11.40;99.90;;;;;;5260555;27;20139;-58
2021/06/13 03:26:46;;;;;;;23.10;9.83;;;11.40;99.90;;;;;;5260482;27;20107;-59
2021/06/13 03:29:13;;;;;;;16.23;9.57;;;11.40;99.90;;;;;;5260760;27;20103;-58
2021/06/13 03:31:40;;;;;;;17.90;9.87;;;11.30;99.90;;;;;;5261817;27;20122;-58
2021/06/13 03:34:08;;;;;;;15.23;8.63;;;11.40;99.90;;;;;;5263012;27;20110;-59
2021/06/13 03:36:37;;;;;;;19.27;9.87;;;11.30;99.90;;;;;;5260735;27;20126;-56
2021/06/13 03:39:05;;;;;;;18.90;9.10;;;11.30;99.90;;;;;;5262458;27;20114;-61
2021/06/13 03:41:35;;;;;;;22.27;9.87;;;11.40;99.90;;;;;;5260866;27;20540;-60
2021/06/13 03:44:04;;;;;;;20.93;9.73;;;11.30;99.90;;;;;;5260854;27;20161;-60
2021/06/13 03:46:36;;;;;;;24.50;10.43;;;11.30;99.90;;;;;;5260012;27;20120;-59
2021/06/13 03:49:06;;;;;;;20.33;10.50;;;11.30;99.90;;;;;;5260628;27;20107;-57
2021/06/13 03:51:33;;;;;;;13.93;9.60;;;11.40;99.90;;;;;;5260006;27;20178;-57
2021/06/13 03:54:00;;;;;;;16.23;9.70;;;11.40;99.90;;;;;;5260687;27;20107;-57
2021/06/13 03:56:32;;;;;;;18.70;9.60;;;11.40;99.90;;;;;;5260685;27;20101;-57
2021/06/13 03:59:00;;;;;;;13.77;8.97;;;11.50;99.90;;;;;;5262331;27;20164;-59
2021/06/13 04:01:30;;;;;;;19.60;10.17;;;11.50;99.90;;;;;;5260348;27;20122;-60
2021/06/13 04:03:58;;;;;;;16.73;8.77;;;11.50;99.90;;;;;;5262957;27;20493;-60
2021/06/13 04:06:27;;;;;;;16.27;9.20;;;11.60;99.90;;;;;;5260586;27;20112;-58
2021/06/13 04:08:55;;;;;;;17.03;8.30;;;11.60;99.90;;;;;;5260697;27;20107;-59
2021/06/13 04:11:26;;;;;;;17.60;9.40;;;11.60;99.90;;;;;;5260509;27;20107;-60
2021/06/13 04:13:59;;;;;;;14.83;9.40;;;11.60;99.90;;;;;;5261077;27;20527;-60
2021/06/13 04:16:26;;;;;;;16.13;9.27;;;11.70;99.90;;;;;;5260439;27;20108;-59
2021/06/13 04:18:53;;;;;;;15.93;8.47;;;11.70;99.90;;;;;;5260952;27;20107;-59
2021/06/13 04:21:21;;;;;;;16.57;8.90;;;11.80;99.90;;;;;;5260576;27;20109;-61
2021/06/13 04:23:49;;;;;;;13.80;8.00;;;11.80;99.90;;;;;;5260301;27;20135;-57
2021/06/13 04:26:18;;;;;;;14.37;8.77;;;11.80;99.90;;;;;;5262895;27;20139;-59
2021/06/13 04:28:45;;;;;;;12.47;7.60;;;11.90;99.90;;;;;;5261314;27;20104;-59
2021/06/13 04:31:19;;;;;;;15.87;9.07;;;11.90;99.90;;;;;;5261552;27;20107;-59
2021/06/13 04:33:47;;;;;;;19.37;9.97;;;12.00;99.90;;;;;;5260295;27;20108;-59
2021/06/13 04:36:16;;;;;;;14.70;8.63;;;12.10;99.90;;;;;;5262943;27;20516;-59
2021/06/13 04:38:44;;;;;;;16.00;9.13;;;12.20;99.90;;;;;;5263543;27;20107;-61
2021/06/13 04:41:13;;;;;;;14.13;8.67;;;12.30;99.90;;;;;;5262945;27;20142;-59
2021/06/13 04:43:40;;;;;;;12.27;8.50;;;12.40;99.90;;;;;;5261350;27;20172;-57
2021/06/13 04:46:17;;;;;;;14.30;8.13;;;12.50;99.90;;;;;;5261215;27;20443;-57
2021/06/13 04:48:49;;;;;;;11.87;8.70;;;12.60;99.90;;;;;;5262137;27;20146;-59
2021/06/13 04:51:16;;;;;;;16.70;9.13;;;12.70;99.90;;;;;;5261780;27;20119;-57
2021/06/13 04:54:19;;;;;;;12.53;7.43;;;12.80;99.90;;;;;;5261721;27;20118;-57
2021/06/13 04:57:02;;;;;;;16.23;8.80;;;12.90;99.90;;;;;;5261704;27;20111;-60
2021/06/13 04:59:30;;;;;;;16.37;8.63;;;13.00;99.90;;;;;;5262106;27;20133;-59
2021/06/13 05:01:59;;;;;;;13.07;7.93;;;13.10;99.90;;;;;;5261785;27;20122;-59
2021/06/13 05:04:27;;;;;;;14.40;8.77;;;13.10;99.90;;;;;;5263792;27;20524;-59
2021/06/13 05:06:54;;;;;;;17.83;8.90;;;13.10;99.90;;;;;;5264022;27;20112;-58
2021/06/13 05:09:25;;;;;;;16.63;8.40;;;13.30;99.90;;;;;;5263372;27;20107;-59
2021/06/13 05:11:52;;;;;;;13.93;8.70;;;13.40;99.90;;;;;;5261099;27;20165;-59
2021/06/13 05:14:20;;;;;;;14.67;8.23;;;13.50;99.90;;;;;;5261703;27;20111;-59
2021/06/13 05:16:46;;;;;;;16.47;8.63;;;13.60;99.90;;;;;;5261520;27;20123;-59
2021/06/13 05:19:13;;;;;;;17.23;8.20;;;13.60;99.90;;;;;;5261698;27;20413;-56
2021/06/13 05:21:41;;;;;;;15.57;8.43;;;13.70;99.90;;;;;;5262529;27;20138;-56
2021/06/13 05:24:09;;;;;;;17.57;9.27;;;13.80;99.90;;;;;;5261304;27;20150;-58
2021/06/13 05:26:36;;;;;;;20.60;9.47;;;13.80;99.90;;;;;;5261546;27;20107;-59
2021/06/13 05:29:04;;;;;;;17.87;8.03;;;13.90;99.90;;;;;;5263397;27;20129;-58
2021/06/13 05:31:34;;;;;;;15.60;8.07;;;14.00;99.90;;;;;;5261354;27;20157;-59
2021/06/13 05:34:01;;;;;;;24.57;8.77;;;14.20;99.90;;;;;;5262123;27;20514;-59
2021/06/13 05:36:27;;;;;;;16.17;7.90;;;14.40;99.90;;;;;;5263988;27;20125;-58
2021/06/13 05:38:56;;;;;;;18.97;8.07;;;14.70;99.90;;;;;;5261811;27;20202;-59
2021/06/13 05:41:24;;;;;;;21.70;6.90;;;14.60;99.90;;;;;;5260906;27;20107;-58
2021/06/13 05:43:51;;;;;;;13.77;6.70;;;16.50;99.90;;;;;;5261297;27;20115;-60
2021/06/13 05:46:20;;;;;;;11.43;5.80;;;20.40;99.50;;;;;;5263098;27;20112;-58
2021/06/13 05:48:48;;;;;;;11.33;4.97;;;24.20;92.30;;;;;;5261377;27;20121;-58
2021/06/13 05:51:15;;;;;;;10.17;5.60;;;25.90;85.90;;;;;;5261370;27;20149;-55
2021/06/13 05:53:42;;;;;;;14.77;5.60;;;26.10;80.80;;;;;;5261418;27;20134;-58
2021/06/13 05:56:10;;;;;;;11.00;5.57;;;22.10;86.80;;;;;;5262195;27;20139;-57
2021/06/13 05:58:37;;;;;;;14.17;5.20;;;20.40;91.50;;;;;;5261334;27;20103;-57
2021/06/13 06:01:04;;;;;;;13.43;6.47;;;19.30;94.20;;;;;;5261404;27;20158;-56
2021/06/13 06:03:33;;;;;;;15.27;6.73;;;17.80;96.30;;;;;;5260765;27;20107;-56
2021/06/13 06:06:00;;;;;;;13.13;6.13;;;17.30;98.10;;;;;;5263661;27;20141;-59
2021/06/13 06:08:29;;;;;;;16.23;5.80;;;16.90;99.40;;;;;;5262949;27;20142;-57
2021/06/13 06:10:56;;;;;;;16.73;6.10;;;16.70;98.60;;;;;;5263709;27;20524;-58
2021/06/13 06:13:26;;;;;;;14.77;5.93;;;15.90;99.90;;;;;;5263613;27;20107;-56
2021/06/13 06:15:52;;;;;;;14.77;7.30;;;15.50;99.90;;;;;;5261247;27;20111;-55
2021/06/13 06:18:19;;;;;;;14.20;5.27;;;15.30;99.90;;;;;;5263387;27;20149;-58
2021/06/13 06:20:46;;;;;;;11.20;5.93;;;15.50;99.90;;;;;;5259919;27;20107;-57
2021/06/13 06:23:13;;;;;;;12.17;5.40;;;15.60;99.90;;;;;;5261910;27;20122;-58
2021/06/13 06:25:40;;;;;;;7.67;4.57;;;15.50;99.90;;;;;;5260802;27;20139;-60
2021/06/13 06:28:07;;;;;;;10.70;5.33;;;15.60;99.90;;;;;;5260234;27;20137;-58
2021/06/13 06:30:37;;;;;;;14.97;5.20;;;15.60;99.40;;;;;;5261553;27;20524;-58
2021/06/13 06:33:04;;;;;;;8.83;5.33;;;15.80;99.10;;;;;;5260635;27;20103;-57
2021/06/13 06:35:31;;;;;;;11.97;5.27;;;15.80;97.10;;;;;;5263206;27;20540;-59
2021/06/13 06:37:57;;;;;;;11.73;5.77;;;15.90;98.40;;;;;;5260247;27;20123;-58
2021/06/13 06:40:26;;;;;;;14.30;4.97;;;16.00;98.80;;;;;;5260464;27;20406;-55
2021/06/13 06:42:57;;;;;;;14.10;6.23;;;16.00;98.10;;;;;;5262252;27;20118;-58
2021/06/13 06:45:29;;;;;;;12.10;5.83;;;15.90;97.90;;;;;;5261972;27;20130;-59
2021/06/13 06:47:57;;;;;;;11.00;5.53;;;15.90;98.10;;;;;;5263461;27;20103;-59
2021/06/13 06:50:24;;;;;;;7.80;4.60;;;16.00;97.10;;;;;;5260975;27;20193;-59
2021/06/13 06:52:51;;;;;;;9.50;4.63;;;16.10;97.10;;;;;;5263042;27;20116;-58
2021/06/13 06:55:18;;;;;;;12.67;4.80;;;16.10;97.00;;;;;;5260933;27;20108;-57
2021/06/13 06:57:46;;;;;;;13.70;4.90;;;16.30;96.80;;;;;;5260557;27;20107;-59
2021/06/13 07:00:20;;;;;;;11.90;5.73;;;16.50;96.30;;;;;;5263057;27;20492;-58
2021/06/13 07:02:47;;;;;;;9.23;5.00;;;16.70;96.40;;;;;;5260573;27;20519;-59
2021/06/13 07:05:20;;;;;;;8.70;4.33;;;16.70;96.20;;;;;;5260670;27;20108;-57
2021/06/13 07:07:50;;;;;;;10.20;4.60;;;16.70;94.90;;;;;;5260480;27;20165;-58
2021/06/13 07:10:18;;;;;;;11.07;5.00;;;16.70;94.30;;;;;;5260849;27;20128;-59
2021/06/13 07:12:57;;;;;;;8.77;4.40;;;16.70;94.90;;;;;;5260228;27;20201;-58
2021/06/13 07:15:24;;;;;;;8.97;4.40;;;16.60;94.70;;;;;;5260624;27;20104;-58
2021/06/13 07:17:53;;;;;;;10.30;4.60;;;16.70;94.90;;;;;;5261190;27;20153;-58
2021/06/13 07:20:24;;;;;;;8.00;4.40;;;16.90;94.70;;;;;;5260796;27;20202;-58
2021/06/13 07:22:53;;;;;;;10.63;4.90;;;16.90;94.20;;;;;;5262446;27;20165;-59
2021/06/13 07:25:21;;;;;;;10.03;5.23;;;17.00;95.20;;;;;;5259863;27;20186;-59
2021/06/13 07:27:47;;;;;;;9.50;4.80;;;17.30;96.30;;;;;;5260916;27;20148;-60
2021/06/13 07:30:17;;;;;;;9.27;4.80;;;17.70;95.00;;;;;;5262307;27;20459;-59
2021/06/13 07:32:44;;;;;;;7.43;4.80;;;17.90;94.90;;;;;;5260479;27;20107;-59
2021/06/13 07:35:12;;;;;;;14.97;4.43;;;18.20;93.10;;;;;;5261406;27;20517;-59
2021/06/13 07:37:43;;;;;;;11.20;4.23;;;18.70;91.90;;;;;;5261355;27;20412;-58
2021/06/13 07:40:11;;;;;;;6.60;3.87;;;18.80;90.60;;;;;;5262277;27;20516;-58
2021/06/13 07:42:38;;;;;;;8.53;3.30;;;19.10;87.50;;;;;;5260741;27;20139;-61
2021/06/13 07:45:07;;;;;;;9.97;4.00;;;21.70;79.70;;;;;;5262714;27;20122;-61
2021/06/13 07:47:34;;;;;;;5.00;3.20;;;23.70;74.90;;;;;;5260751;27;20123;-61
2021/06/13 07:50:01;;;;;;;5.43;3.40;;;23.60;69.80;;;;;;5259998;27;20121;-63
2021/06/13 07:52:28;;;;;;;7.23;3.30;;;24.20;72.40;;;;;;5261268;27;20431;-60
2021/06/13 07:54:56;;;;;;;8.10;3.47;;;28.40;65.60;;;;;;5260567;27;20108;-61
2021/06/13 07:57:23;;;;;;;4.67;2.87;;;32.20;51.40;;;;;;5260389;27;20119;-60
2021/06/13 07:59:50;;;;;;;6.05;3.75;;;33.80;50.60;;;;;;5262646;27;20534;-62
2021/06/13 08:02:17;;;;;;;7.57;3.58;;;37.00;44.30;;;;;;5261453;27;20573;-58
2021/06/13 08:04:48;;;;;;;8.07;3.62;;;42.10;37.90;;;;;;5260662;27;20505;-59
2021/06/13 08:07:15;;;;;;;6.53;3.70;;;45.50;33.60;;;;;;5261719;27;20156;-61
2021/06/13 08:09:42;;;;;;;8.25;3.55;;;48.20;31.30;;;;;;5261665;27;20528;-64
2021/06/13 08:12:12;;;;;;;8.45;3.20;;;50.10;30.00;;;;;;5261606;27;20111;-64
2021/06/13 08:14:39;;;;;;;4.93;3.58;;;51.10;29.00;;;;;;5262450;27;20119;-62
2021/06/13 08:17:06;;;;;;;9.93;4.15;;;51.80;28.70;;;;;;5262052;27;20122;-58
2021/06/13 08:19:33;;;;;;;5.85;3.80;;;52.80;27.40;;;;;;5263844;27;20457;-60
2021/06/13 08:22:00;;;;;;;6.68;3.67;;;52.50;27.70;;;;;;5264627;27;20114;-60
2021/06/13 08:24:28;;;;;;;5.97;3.62;;;53.40;27.60;;;;;;5262599;27;20472;-59
2021/06/13 08:26:55;;;;;;;5.07;3.80;;;53.50;27.20;;;;;;5262791;27;20106;-59
2021/06/13 08:29:23;;;;;;;4.82;3.25;;;52.60;26.30;;;;;;5264447;27;20122;-62
2021/06/13 08:31:53;;;;;;;7.35;4.00;;;53.60;26.40;;;;;;5261931;27;20107;-60
2021/06/13 08:34:20;;;;;;;5.82;3.75;;;54.00;26.60;;;;;;5264535;27;20170;-60
2021/06/13 08:36:47;;;;;;;6.37;2.97;;;53.70;26.20;;;;;;5262029;27;20108;-61
2021/06/13 08:39:14;;;;;;;6.97;3.80;;;53.10;26.70;;;;;;5263189;27;20126;-61
2021/06/13 08:41:42;;;;;;;6.43;3.72;;;53.60;26.30;;;;;;5264239;27;20135;-60
2021/06/13 08:44:10;;;;;;;4.72;3.08;;;54.00;26.00;;;;;;5262041;27;20118;-59
2021/06/13 08:46:42;;;;;;;5.28;3.10;;;54.90;26.00;;;;;;5261960;27;20153;-60
2021/06/13 08:49:11;;;;;;;5.93;3.12;;;55.00;25.80;;;;;;5264522;27;20103;-60
2021/06/13 08:51:38;;;;;;;5.05;3.30;;;55.00;25.20;;;;;;5262049;27;20104;-64
2021/06/13 08:54:05;;;;;;;4.35;3.47;;;55.40;25.40;;;;;;5263556;27;20107;-62
2021/06/13 08:56:32;;;;;;;5.82;3.47;;;55.40;25.40;;;;;;5261696;27;20126;-60
2021/06/13 08:58:59;;;;;;;5.30;3.15;;;55.70;25.30;;;;;;5261540;27;20107;-61
2021/06/13 09:01:26;;;;;;;3.97;3.03;;;52.80;25.70;;;;;;5261912;27;20114;-61
2021/06/13 09:03:54;;;;;;;6.55;3.00;;;51.40;25.60;;;;;;5263051;27;20417;-60
2021/06/13 09:06:21;;;;;;;4.10;2.70;;;49.20;26.20;;;;;;5264212;27;20139;-60
2021/06/13 09:08:49;;;;;;;4.43;2.97;;;51.80;26.00;;;;;;5262596;27;20103;-60
2021/06/13 09:11:25;;;;;;;7.03;3.28;;;51.30;25.60;;;;;;5261505;27;20119;-63
2021/06/13 09:13:52;;;;;;;3.85;2.87;;;52.30;25.30;;;;;;5263661;27;20134;-63
2021/06/13 09:16:27;;;;;;;4.50;3.08;;;52.50;25.40;;;;;;5261679;27;20138;-64
2021/06/13 09:18:56;;;;;;;5.20;2.80;;;53.70;25.30;;;;;;5263672;27;20131;-61
2021/06/13 09:21:33;;;;;;;4.78;2.92;;;54.20;25.20;;;;;;5261285;27;20133;-61
2021/06/13 09:24:00;;;;;;;4.97;3.25;;;52.10;25.20;;;;;;5261266;27;20103;-64
2021/06/13 09:26:28;;;;;;;4.90;3.20;;;53.00;25.40;;;;;;5263963;27;20127;-64
2021/06/13 09:28:57;;;;;;;4.20;3.25;;;48.80;24.90;;;;;;5261632;27;20118;-61
2021/06/13 09:31:27;;;;;;;4.95;3.47;;;49.50;25.80;;;;;;5262569;27;20523;-60
2021/06/13 09:33:57;;;;;;;5.55;3.22;;;45.30;25.60;;;;;;5260995;27;20149;-62
2021/06/13 09:36:25;;;;;;;7.07;3.03;;;45.30;27.30;;;;;;5264086;27;20118;-62
2021/06/13 09:38:54;;;;;;;8.57;3.95;;;48.30;26.10;;;;;;5263560;27;20153;-63
2021/06/13 09:41:23;;;;;;;5.12;3.10;;;49.20;25.60;;;;;;5261608;27;20108;-62
2021/06/13 09:43:52;;;;;;;4.87;3.12;;;49.70;25.60;;;;;;5264045;27;20155;-61
2021/06/13 09:46:21;;;;;;;5.43;3.00;;;47.90;25.80;;;;;;5263551;27;20107;-60
2021/06/13 09:48:50;;;;;;;6.22;3.12;;;48.60;25.90;;;;;;5261569;27;20107;-60
2021/06/13 09:51:20;;;;;;;4.30;2.92;;;48.50;25.90;;;;;;5260915;27;20440;-60
2021/06/13 09:53:49;;;;;;;4.57;2.95;;;46.90;26.50;;;;;;5261608;27;20107;-63
2021/06/13 09:56:22;;;;;;;6.18;3.80;;;43.20;27.80;;;;;;5263810;27;20118;-61
2021/06/13 09:58:55;;;;;;;5.12;2.97;;;37.70;28.80;;;;;;5261453;27;20108;-61
2021/06/13 10:01:23;;;;;;;6.05;3.20;;;30.40;32.80;;;;;;5263193;27;20139;-60
2021/06/13 10:03:50;;;;;;;7.15;3.40;;;28.00;35.70;;;;;;5260108;27;20104;-60
2021/06/13 10:06:19;;;;;;;5.20;2.78;;;25.50;38.80;;;;;;5263565;27;20115;-61
2021/06/13 10:08:48;;;;;;;6.70;3.20;;;25.00;39.90;;;;;;5260815;27;20116;-62
2021/06/13 10:11:15;;;;;;;5.20;3.10;;;24.30;40.20;;;;;;5263420;27;20107;-61
2021/06/13 10:13:51;;;;;;;5.20;3.05;;;24.40;40.90;;;;;;5261209;27;20173;-62
2021/06/13 10:16:41;;;;;;;6.07;3.10;;;24.40;42.20;;;;;;5263418;27;20106;-61
2021/06/13 10:19:10;;;;;;;5.67;2.90;;;23.70;42.00;;;;;;5262815;27;20134;-63
2021/06/13 10:21:41;;;;;;;5.53;2.90;;;23.60;43.40;;;;;;5260926;27;20107;-61
2021/06/13 10:24:10;;;;;;;4.03;2.77;;;23.60;42.60;;;;;;5262915;27;20139;-63
2021/06/13 10:26:39;;;;;;;6.93;3.20;;;23.50;44.30;;;;;;5261236;27;20123;-62
2021/06/13 10:29:07;;;;;;;5.17;2.80;;;23.80;43.90;;;;;;5261403;27;20156;-60
2021/06/13 10:31:34;;;;;;;6.00;3.63;;;23.60;43.20;;;;;;5263486;27;20119;-63
2021/06/13 10:34:01;;;;;;;5.93;3.27;;;23.50;44.20;;;;;;5260872;27;20115;-61
2021/06/13 10:36:32;;;;;;;6.70;3.23;;;23.30;43.90;;;;;;5261011;27;20108;-61
2021/06/13 10:39:00;;;;;;;5.73;3.13;;;23.50;45.60;;;;;;5263671;27;20118;-60
2021/06/13 10:41:27;;;;;;;6.27;2.90;;;23.50;44.80;;;;;;5260665;27;20114;-61
2021/06/13 10:44:01;;;;;;;9.23;3.53;;;23.60;44.60;;;;;;5263455;27;20107;-62
2021/06/13 10:46:29;;;;;;;6.30;3.27;;;23.30;45.80;;;;;;5262897;27;20115;-62
2021/06/13 10:48:59;;;;;;;6.07;2.93;;;23.60;46.20;;;;;;5262672;27;20420;-62
2021/06/13 10:51:41;;;;;;;4.20;3.20;;;23.70;45.30;;;;;;5261030;27;20123;-61
2021/06/13 10:54:23;;;;;;;8.63;3.50;;;23.70;45.30;;;;;;5261202;27;20156;-62
2021/06/13 10:56:52;;;;;;;6.50;3.67;;;23.80;46.50;;;;;;5261042;27;20106;-62
2021/06/13 10:59:21;;;;;;;8.30;3.50;;;23.90;45.40;;;;;;5261471;27;20111;-60
2021/06/13 11:01:59;;;;;;;4.83;3.27;;;23.80;45.90;;;;;;5262885;27;20106;-62
2021/06/13 11:04:46;;;;;;;7.93;3.60;;;23.40;46.80;;;;;;5261071;27;20111;-60
2021/06/13 11:07:35;;;;;;;6.00;3.30;;;23.50;46.60;;;;;;5262373;27;20151;-60
2021/06/13 11:10:17;;;;;;;7.03;3.50;;;23.20;47.40;;;;;;5260162;27;20107;-60
2021/06/13 11:12:47;;;;;;;9.20;4.33;;;23.40;47.50;;;;;;5262525;27;20107;-60
2021/06/13 11:15:16;;;;;;;6.40;3.33;;;23.10;47.60;;;;;;5260786;27;20107;-60
2021/06/13 11:17:54;;;;;;;6.83;4.00;;;23.30;48.10;;;;;;5260518;27;20483;-62
2021/06/13 11:20:46;;;;;;;6.13;3.43;;;23.40;48.50;;;;;;5260370;27;20179;-60
2021/06/13 11:23:16;;;;;;;7.40;4.00;;;23.30;48.60;;;;;;5260803;27;20138;-61
2021/06/13 11:25:44;;;;;;;6.03;3.27;;;23.40;48.60;;;;;;5260401;27;20176;-61
2021/06/13 11:28:13;;;;;;;6.23;3.27;;;23.50;48.70;;;;;;5260632;27;20107;-64
2021/06/13 11:30:42;;;;;;;6.03;3.30;;;23.60;48.70;;;;;;5260517;27;20108;-61
2021/06/13 11:33:10;;;;;;;7.37;3.57;;;23.70;48.00;;;;;;5262552;27;20123;-62
2021/06/13 11:35:43;;;;;;;6.27;3.43;;;23.70;48.90;;;;;;5261199;27;20108;-63
2021/06/13 11:38:29;;;;;;;9.13;4.20;;;23.90;48.60;;;;;;5260611;27;20107;-63
2021/06/13 11:41:00;;;;;;;7.17;3.67;;;23.60;47.60;;;;;;5260514;27;20107;-61
2021/06/13 11:43:31;;;;;;;10.40;4.43;;;23.50;48.30;;;;;;5260377;27;20131;-60
2021/06/13 11:46:00;;;;;;;9.93;4.13;;;23.30;48.50;;;;;;5260691;27;20129;-61
2021/06/13 11:48:29;;;;;;;7.73;3.60;;;23.30;48.80;;;;;;5260182;27;20148;-61
2021/06/13 11:51:06;;;;;;;8.50;4.20;;;23.50;49.80;;;;;;5263078;27;20534;-64
2021/06/13 11:53:59;;;;;;;7.07;3.83;;;23.60;49.10;;;;;;5260670;27;20135;-61
2021/06/13 11:56:44;;;;;;;5.17;3.33;;;23.70;49.70;;;;;;5262407;27;20107;-64
2021/06/13 11:59:15;;;;;;;9.57;3.50;;;23.80;49.20;;;;;;5260651;27;20139;-61
2021/06/13 12:01:46;;;;;;;6.93;3.37;;;23.80;49.70;;;;;;5260005;27;20108;-61
2021/06/13 12:04:15;;;;;;;6.57;3.73;;;23.70;50.20;;;;;;5261469;27;20551;-61
2021/06/13 12:06:45;;;;;;;8.07;3.50;;;23.70;50.00;;;;;;5260729;27;20107;-61
2021/06/13 12:09:16;;;;;;;7.77;3.93;;;23.50;49.50;;;;;;5260422;27;20138;-60
2021/06/13 12:11:46;;;;;;;8.17;4.73;;;23.10;50.20;;;;;;5260335;27;20431;-61
2021/06/13 12:14:18;;;;;;;7.50;4.00;;;23.00;49.70;;;;;;5260233;27;20126;-62
2021/06/13 12:16:45;;;;;;;6.03;3.63;;;23.30;51.70;;;;;;5261328;27;20123;-62
2021/06/13 12:19:12;;;;;;;7.90;4.20;;;23.50;51.40;;;;;;5260307;27;20138;-60
2021/06/13 12:21:39;;;;;;;8.87;3.50;;;23.50;51.20;;;;;;5259963;27;20466;-63
2021/06/13 12:24:33;;;;;;;7.90;3.83;;;23.60;51.20;;;;;;5261938;27;20108;-61
2021/06/13 12:30:03;;;;;;;8.47;4.00;;;23.90;51.90;;;;;;5262910;27;20597;-62
2021/06/13 12:32:31;;;;;;;10.30;4.57;;;23.90;51.70;;;;;;5260208;27;20107;-61
2021/06/13 12:35:14;;;;;;;7.30;3.63;;;23.90;51.60;;;;;;5260498;27;20124;-61
2021/06/13 12:37:42;;;;;;;8.00;4.00;;;24.00;51.30;;;;;;5261014;27;20107;-60
2021/06/13 12:40:12;;;;;;;7.10;4.07;;;23.80;49.90;;;;;;5260219;27;20108;-61
2021/06/13 12:42:41;;;;;;;8.27;3.67;;;23.50;51.40;;;;;;5262838;27;20119;-61
2021/06/13 12:45:11;;;;;;;6.93;3.60;;;23.60;52.50;;;;;;5260621;27;20130;-61
2021/06/13 12:47:48;;;;;;;7.70;4.00;;;23.80;52.90;;;;;;5260267;27;20138;-62
2021/06/13 12:50:22;;;;;;;8.73;4.40;;;23.80;52.20;;;;;;5260040;27;20146;-61
2021/06/13 12:52:50;;;;;;;8.97;3.87;;;23.60;50.70;;;;;;5262756;27;20574;-62
2021/06/13 12:55:17;;;;;;;8.18;4.05;;;23.20;52.30;;;;;;5260617;27;20134;-64
2021/06/13 12:57:47;;;;;;;8.97;3.53;;;23.40;52.20;;;;;;5262980;27;20150;-60